Tropical Cyclones
[Index]
Main Index Home Page Stock Weather Photos Extreme Storms Discussion Storm News and Storm Chasing Reports Tropical Cyclones / Hurricanes / Typhoons Weather Data and Links Wild Fires / Bushfires Weather Observation Techniques Weather Picture Catalogue Tornado Pictures and Reports Stock Video Footage and DVDs for sale
Season 2006-2007 Tropical Cyclone XAVIER Track Map
Season 2006-2007 Summaries (Operational Data): [AU] [SIO] [SPAC] [SH]
<<- Previous TC | 2006-2007 Season | Next TC ->>

click for intensity scale information  Lat/long Grid: Show Hide

 Date Labels: Show Hide

Operational Tropical Cyclone Data : JTWC Advisories | BoM Warnings

Name: XAVIER
Number: 0701

20 Oct 2006 21:00 UTC to 28 Oct 2006 06:00 UTC

    date/time    lat    long     hPa   cat  kts
2006-10-20 21    9.9   167.8    1005         20          
2006-10-21 00    9.9   167.8    1005         20          
2006-10-21 06    9.9   169.0    1006         20          
2006-10-21 12   10.4   168.4    1006         25          
2006-10-21 18   11.9   168.3    1006         25          
2006-10-21 21   10.9   168.9    1004         25          
2006-10-22 00   11.0   167.8     995    1    35          
2006-10-22 06   11.0   167.2     985    2    50          
2006-10-22 12   10.9   167.3     980    2    55          
2006-10-22 18   11.0   167.8     970    3    65          
2006-10-23 00   11.5   168.0     960    3    75          
2006-10-23 06   12.2   168.2     955    3    80          
2006-10-23 12   12.5   168.5     950    3    80          
2006-10-23 18   12.7   168.6     945    3    85          
2006-10-24 00   13.1   169.0     935    4    90          
2006-10-24 06   13.7   169.6     930    4    95          
2006-10-24 12   14.4   170.1     930    4    95          
2006-10-24 18   15.0   171.0     930    4    95          
2006-10-25 00   15.6   171.7     945    3    85          
2006-10-25 06   16.2   172.1     960    3    75          
2006-10-25 12   16.0   171.9     975    2    60          
2006-10-25 18   16.0   171.0     987    1    45          
2006-10-25 21   15.0   170.7     995    1    35          
2006-10-26 00   14.8   170.3     997         30          
2006-10-26 06   14.0   169.5    1000         30          
2006-10-26 18   13.0   168.8    1000         30          
2006-10-27 06   11.4   167.0    1007         25          
2006-10-27 18   10.5   166.0    1007         20          
2006-10-28 06    9.5   165.5    1005         20          
Winds are 10-min average.

Tropical cyclone tracks developed by Michael Bath using operational warnings and advisories and Google Maps.


[Australian Severe Weather index] [Copyright Notice] [Email Contacts] [Search This Site] [Privacy Policy]
Document: tropical_cyclone_xavier.htm Updated: 28 May 2013